createdAt,value
2019-02-25T00:02:08.635Z,32.60
2019-02-25T00:04:39.774Z,32.70
2019-02-25T00:07:10.584Z,32.70
2019-02-25T00:09:41.707Z,32.70
2019-02-25T00:12:12.690Z,32.70
2019-02-25T00:14:43.735Z,33.20
2019-02-25T00:17:14.148Z,32.70
2019-02-25T00:19:44.790Z,32.70
2019-02-25T00:22:15.216Z,32.70
2019-02-25T00:24:47.034Z,32.70
2019-02-25T00:27:17.917Z,32.70
2019-02-25T00:29:49.061Z,32.70
2019-02-25T00:32:20.202Z,32.70
2019-02-25T00:34:51.040Z,32.70
2019-02-25T00:37:22.494Z,32.70
2019-02-25T00:39:53.325Z,32.70
2019-02-25T00:42:24.605Z,32.60
2019-02-25T00:44:55.337Z,32.70
2019-02-25T00:47:26.402Z,32.50
2019-02-25T00:49:57.594Z,32.70
2019-02-25T00:52:28.733Z,32.70
2019-02-25T00:54:59.830Z,32.50
2019-02-25T00:57:31.339Z,32.60
2019-02-25T01:00:02.782Z,32.50
2019-02-25T01:02:34.338Z,32.60
2019-02-25T01:05:05.695Z,32.60
2019-02-25T01:07:36.521Z,32.50
2019-02-25T01:10:08.338Z,33.10
2019-02-25T01:12:39.290Z,32.50
2019-02-25T01:15:10.441Z,32.50
2019-02-25T01:17:41.401Z,32.50
2019-02-25T01:20:12.849Z,32.50
2019-02-25T01:22:44.305Z,32.60
2019-02-25T01:25:15.752Z,32.50
2019-02-25T01:27:46.594Z,32.50
2019-02-25T01:30:18.377Z,32.50
2019-02-25T01:32:49.724Z,32.50
2019-02-25T01:35:20.641Z,32.50
2019-02-25T01:37:51.469Z,32.50
2019-02-25T01:40:22.614Z,32.50
2019-02-25T01:42:54.070Z,32.50
2019-02-25T01:45:25.517Z,32.50
2019-02-25T01:47:56.654Z,32.50
2019-02-25T01:50:27.810Z,32.50
2019-02-25T01:52:58.949Z,32.40
2019-02-25T01:55:31.055Z,32.50
2019-02-25T01:58:02.158Z,32.40
2019-02-25T02:00:33.302Z,32.30
2019-02-25T02:03:03.919Z,32.40
2019-02-25T02:05:34.360Z,32.40
2019-02-25T02:08:05.357Z,32.40
2019-02-25T02:10:35.731Z,32.30
2019-02-25T02:13:14.042Z,32.40
2019-02-25T02:15:38.626Z,32.40
2019-02-25T02:18:09.273Z,32.30
2019-02-25T02:20:39.694Z,32.30
2019-02-25T02:23:10.302Z,32.30
2019-02-25T02:25:41.054Z,32.40
2019-02-25T02:28:11.671Z,32.30
2019-02-25T02:30:42.106Z,33.00
2019-02-25T02:33:13.045Z,32.30
2019-02-25T02:35:43.785Z,32.30
2019-02-25T02:38:15.366Z,32.40
2019-02-25T02:40:45.770Z,32.30
2019-02-25T02:43:16.454Z,32.30
2019-02-25T02:46:09.940Z,32.30
2019-02-25T02:48:44.718Z,32.40
2019-02-25T02:51:15.303Z,32.40
2019-02-25T02:53:46.114Z,33.00
2019-02-25T02:56:16.894Z,32.30
2019-02-25T02:58:47.220Z,32.40
2019-02-25T03:01:17.959Z,32.30
2019-02-25T03:03:48.649Z,32.30
2019-02-25T03:06:19.009Z,32.20
2019-02-25T03:08:49.574Z,32.30
2019-02-25T03:11:20.378Z,32.30
2019-02-25T03:13:51.386Z,32.20
2019-02-25T03:16:22.055Z,32.20
2019-02-25T03:18:52.479Z,32.20
2019-02-25T03:21:23.105Z,32.20
2019-02-25T03:23:53.440Z,32.20
2019-02-25T03:26:23.864Z,32.20
2019-02-25T03:28:55.002Z,32.20
2019-02-25T03:31:26.111Z,32.20
2019-02-25T03:33:57.305Z,32.20
2019-02-25T03:36:28.525Z,32.20
2019-02-25T03:38:59.271Z,32.20
2019-02-25T03:41:31.026Z,32.20
2019-02-25T03:44:02.682Z,32.20
2019-02-25T03:46:33.583Z,32.20
2019-02-25T03:49:04.768Z,32.30
2019-02-25T03:51:35.869Z,32.20
2019-02-25T03:54:07.053Z,32.20
2019-02-25T03:56:38.454Z,32.20
2019-02-25T03:59:11.582Z,32.20
2019-02-25T04:01:42.638Z,32.20
2019-02-25T04:04:13.780Z,32.40
2019-02-25T04:06:45.050Z,32.30
2019-02-25T04:09:16.377Z,32.30
2019-02-25T04:11:47.161Z,32.30
2019-02-25T04:14:18.046Z,32.30
2019-02-25T04:16:49.498Z,32.30
2019-02-25T04:19:20.867Z,32.30
2019-02-25T04:21:52.401Z,32.30
2019-02-25T04:24:23.542Z,32.30
2019-02-25T04:26:55.738Z,32.30
2019-02-25T04:29:27.063Z,32.30
2019-02-25T04:31:57.900Z,32.30
2019-02-25T04:34:28.853Z,32.30
2019-02-25T04:36:59.111Z,33.00
2019-02-25T04:39:30.037Z,32.30
2019-02-25T04:42:01.240Z,32.30
2019-02-25T04:44:32.690Z,32.30
2019-02-25T04:47:03.843Z,32.30
2019-02-25T04:49:34.176Z,32.30
2019-02-25T04:52:04.741Z,32.30
2019-02-25T04:54:34.913Z,32.30
2019-02-25T04:57:06.518Z,32.30
2019-02-25T04:59:36.874Z,32.30
2019-02-25T05:02:07.630Z,32.30
2019-02-25T05:04:38.241Z,32.30
2019-02-25T05:07:09.043Z,32.30
2019-02-25T05:09:40.910Z,32.30
2019-02-25T05:12:11.581Z,32.30
2019-02-25T05:14:42.454Z,32.30
2019-02-25T05:17:13.259Z,32.30
2019-02-25T05:19:43.869Z,32.30
2019-02-25T05:22:15.549Z,32.30
2019-02-25T05:24:46.158Z,32.30
2019-02-25T05:27:16.874Z,32.30
2019-02-25T05:29:47.541Z,32.30
2019-02-25T05:32:17.971Z,32.30
2019-02-25T05:34:48.585Z,32.40
2019-02-25T05:37:19.235Z,32.40
2019-02-25T05:39:50.145Z,32.40
2019-02-25T05:42:21.627Z,32.40
2019-02-25T05:44:53.078Z,32.50
2019-02-25T05:47:24.217Z,32.60
2019-02-25T05:49:55.361Z,32.70
2019-02-25T05:52:26.506Z,32.70
2019-02-25T05:54:57.953Z,32.70
2019-02-25T05:57:29.138Z,32.70
2019-02-25T06:00:00.321Z,32.70
2019-02-25T06:02:31.422Z,32.70
2019-02-25T06:05:02.482Z,32.70
2019-02-25T06:07:33.426Z,32.70
2019-02-25T06:10:09.306Z,32.70
2019-02-25T06:12:40.775Z,32.70
2019-02-25T06:15:12.672Z,32.70
2019-02-25T06:17:44.615Z,32.70
2019-02-25T06:20:15.741Z,32.70
2019-02-25T06:22:46.957Z,32.70
2019-02-25T06:25:18.237Z,32.80
2019-02-25T06:27:49.681Z,32.60
2019-02-25T06:30:20.771Z,32.40
2019-02-25T06:32:51.405Z,32.50
2019-02-25T06:35:22.565Z,32.10
2019-02-25T06:37:53.439Z,32.00
2019-02-25T06:40:24.587Z,32.00
2019-02-25T06:42:55.421Z,32.00
2019-02-25T06:45:27.489Z,32.00
2019-02-25T06:47:59.857Z,31.90
2019-02-25T06:50:30.993Z,31.90
2019-02-25T06:53:01.839Z,31.80
2019-02-25T06:55:33.316Z,31.60
2019-02-25T06:58:04.433Z,31.40
2019-02-25T07:00:35.581Z,32.10
2019-02-25T07:03:07.028Z,31.40
2019-02-25T07:05:48.929Z,31.40
2019-02-25T07:08:24.678Z,31.40
2019-02-25T07:11:00.582Z,31.40
2019-02-25T07:13:47.853Z,31.30
2019-02-25T07:16:52.473Z,31.60
2019-02-25T07:19:51.274Z,31.50
2019-02-25T07:22:49.765Z,31.50
2019-02-25T07:25:39.344Z,31.40
2019-02-25T07:28:31.741Z,31.90
2019-02-25T07:31:23.622Z,32.10
2019-02-25T07:34:04.746Z,31.80
2019-02-25T07:36:54.255Z,32.00
2019-02-25T07:39:46.421Z,31.90
2019-02-25T07:42:34.023Z,31.80
2019-02-25T07:45:27.163Z,31.70
2019-02-25T07:48:29.156Z,31.80
2019-02-25T07:51:24.638Z,31.90
2019-02-25T07:54:23.969Z,31.90
2019-02-25T07:57:07.554Z,31.90
2019-02-25T07:59:50.577Z,31.90
2019-02-25T08:02:28.078Z,31.80
2019-02-25T08:05:09.706Z,32.00
2019-02-25T08:07:59.214Z,31.80
2019-02-25T08:11:00.918Z,31.80
2019-02-25T08:13:46.475Z,31.90
2019-02-25T08:16:24.344Z,31.90
2019-02-25T08:19:12.716Z,31.90
2019-02-25T08:21:54.179Z,31.90
2019-02-25T08:24:37.025Z,31.80
2019-02-25T08:27:28.803Z,31.90
2019-02-25T08:30:17.902Z,31.90
2019-02-25T08:32:58.126Z,31.90
2019-02-25T08:36:24.930Z,31.90
2019-02-25T08:39:09.338Z,31.90
2019-02-25T08:41:57.119Z,31.90
2019-02-25T08:44:37.009Z,31.90
2019-02-25T08:47:21.367Z,31.90
2019-02-25T08:50:00.810Z,31.90
2019-02-25T08:52:32.253Z,31.90
2019-02-25T08:55:03.401Z,32.00
2019-02-25T08:57:34.544Z,32.00
2019-02-25T09:00:06.874Z,32.00
2019-02-25T09:02:37.818Z,32.00
2019-02-25T09:05:11.003Z,32.00
2019-02-25T09:07:42.749Z,31.90
2019-02-25T09:10:14.924Z,31.90
2019-02-25T09:12:46.051Z,31.90
2019-02-25T09:15:17.187Z,31.90
2019-02-25T09:17:46.471Z,31.90
2019-02-25T09:20:17.297Z,31.90
2019-02-25T09:22:48.125Z,31.90
2019-02-25T09:25:20.222Z,31.90
2019-02-25T09:27:51.356Z,31.90
2019-02-25T09:30:22.781Z,32.00
2019-02-25T09:32:54.543Z,32.00
2019-02-25T09:35:25.999Z,32.00
2019-02-25T09:37:57.468Z,32.00
2019-02-25T09:40:28.926Z,32.00
2019-02-25T09:43:00.045Z,32.00
2019-02-25T09:45:31.189Z,32.00
2019-02-25T09:48:02.593Z,32.00
2019-02-25T09:50:33.793Z,32.00
2019-02-25T09:53:04.962Z,32.00
2019-02-25T09:55:36.067Z,32.00
2019-02-25T09:58:07.524Z,32.10
2019-02-25T10:00:38.595Z,32.10
2019-02-25T10:03:09.455Z,32.20
2019-02-25T10:05:40.335Z,32.10
2019-02-25T10:08:11.502Z,32.10
2019-02-25T10:10:42.673Z,32.10
2019-02-25T10:13:15.621Z,32.20
2019-02-25T10:15:47.370Z,32.10
2019-02-25T10:18:18.813Z,32.10
2019-02-25T10:20:49.649Z,32.20
2019-02-25T10:23:22.027Z,32.20
2019-02-25T10:25:53.476Z,32.10
2019-02-25T10:28:24.313Z,32.20
2019-02-25T10:30:55.463Z,32.20
2019-02-25T10:33:26.294Z,32.20
2019-02-25T10:35:58.358Z,32.20
2019-02-25T10:38:29.504Z,32.20
2019-02-25T10:41:00.950Z,32.20
2019-02-25T10:43:33.883Z,32.20
2019-02-25T10:46:04.189Z,32.20
2019-02-25T10:48:35.303Z,32.30
2019-02-25T10:51:07.048Z,32.30
2019-02-25T10:53:39.164Z,32.30
2019-02-25T10:56:22.059Z,32.70
2019-02-25T10:58:54.632Z,33.20
2019-02-25T11:01:25.772Z,32.50
2019-02-25T11:03:56.797Z,32.50
2019-02-25T11:06:29.071Z,32.50
2019-02-25T11:09:07.034Z,32.70
2019-02-25T11:11:40.077Z,33.00
2019-02-25T11:14:11.947Z,33.20
2019-02-25T11:16:43.982Z,33.30
2019-02-25T11:19:16.066Z,33.30
2019-02-25T11:21:47.207Z,33.40
2019-02-25T11:24:20.325Z,33.40
2019-02-25T11:26:51.028Z,33.50
2019-02-25T11:29:22.790Z,33.50
2019-02-25T11:31:55.525Z,33.40
2019-02-25T11:34:26.971Z,33.30
2019-02-25T11:36:59.385Z,33.20
2019-02-25T11:39:32.485Z,33.20
2019-02-25T11:42:05.540Z,33.20
2019-02-25T11:44:37.026Z,33.10
2019-02-25T11:47:08.193Z,33.10
2019-02-25T11:49:39.314Z,33.20
2019-02-25T11:52:10.253Z,33.50
2019-02-25T11:54:42.001Z,33.60
2019-02-25T11:57:13.045Z,33.70
2019-02-25T11:59:44.185Z,33.60
2019-02-25T12:02:15.334Z,33.70
2019-02-25T12:04:48.342Z,33.80
2019-02-25T12:07:19.162Z,33.70
2019-02-25T12:09:50.508Z,33.50
2019-02-25T12:12:21.447Z,33.50
2019-02-25T12:14:52.899Z,33.50
2019-02-25T12:17:24.355Z,33.60
2019-02-25T12:19:55.522Z,33.50
2019-02-25T12:22:26.588Z,33.60
2019-02-25T12:24:57.792Z,33.70
2019-02-25T12:27:28.937Z,33.80
2019-02-25T12:30:00.085Z,33.70
2019-02-25T12:32:31.238Z,33.90
2019-02-25T12:35:02.047Z,33.90
2019-02-25T12:37:32.912Z,33.80
2019-02-25T12:40:04.027Z,33.80
2019-02-25T12:42:35.165Z,33.70
2019-02-25T12:45:06.313Z,33.70
2019-02-25T12:47:37.458Z,33.60
2019-02-25T12:50:09.385Z,33.40
2019-02-25T12:52:40.364Z,33.30
2019-02-25T12:55:11.739Z,33.20
2019-02-25T12:57:42.491Z,33.00
2019-02-25T13:00:14.951Z,32.90
2019-02-25T13:02:45.854Z,32.70
2019-02-25T13:05:17.199Z,32.60
2019-02-25T13:07:47.957Z,32.50
2019-02-25T13:10:18.679Z,32.50
2019-02-25T13:12:51.314Z,32.40
2019-02-25T13:15:21.833Z,32.30
2019-02-25T13:17:52.856Z,32.20
2019-02-25T13:20:24.781Z,32.20
2019-02-25T13:22:55.122Z,32.20
2019-02-25T13:25:26.462Z,32.20
2019-02-25T13:27:58.774Z,32.20
2019-02-25T13:30:29.772Z,32.20
2019-02-25T13:33:01.302Z,32.10
2019-02-25T13:35:32.359Z,32.10
2019-02-25T13:38:02.709Z,32.00
2019-02-25T13:40:40.775Z,32.00
2019-02-25T13:43:11.419Z,31.40
2019-02-25T13:45:42.375Z,32.00
2019-02-25T13:48:13.506Z,32.00
2019-02-25T13:50:44.649Z,32.00
2019-02-25T13:53:16.165Z,32.00
2019-02-25T13:55:47.446Z,31.90
2019-02-25T13:58:18.635Z,31.90
2019-02-25T14:00:50.035Z,32.00
2019-02-25T14:03:21.166Z,31.90
2019-02-25T14:05:52.127Z,31.90
2019-02-25T14:08:22.570Z,31.90
2019-02-25T14:10:53.147Z,32.00
2019-02-25T14:13:23.603Z,31.90
2019-02-25T14:15:55.735Z,31.90
2019-02-25T14:18:26.249Z,31.90
2019-02-25T14:20:57.147Z,31.90
2019-02-25T14:23:27.498Z,31.80
2019-02-25T14:25:59.196Z,31.70
2019-02-25T14:28:30.391Z,32.20
2019-02-25T14:31:01.282Z,32.40
2019-02-25T14:33:35.621Z,32.40
2019-02-25T14:36:05.497Z,32.40
2019-02-25T14:38:37.237Z,32.60
2019-02-25T14:41:09.067Z,32.90
2019-02-25T14:43:46.492Z,33.20
2019-02-25T14:46:14.462Z,33.30
2019-02-25T14:48:45.658Z,33.60
2019-02-25T14:51:16.589Z,33.80
2019-02-25T14:53:49.257Z,33.90
2019-02-25T14:56:20.305Z,34.10
2019-02-25T14:58:52.067Z,33.80
2019-02-25T15:01:25.650Z,33.90
2019-02-25T15:04:08.106Z,34.20
2019-02-25T15:06:56.911Z,34.50
2019-02-25T15:09:28.351Z,34.20
2019-02-25T15:12:01.845Z,34.50
2019-02-25T15:14:32.798Z,34.90
2019-02-25T15:17:06.024Z,35.60
2019-02-25T15:19:38.654Z,35.00
2019-02-25T15:22:09.729Z,35.10
2019-02-25T15:24:44.174Z,35.30
2019-02-25T15:27:13.326Z,35.20
2019-02-25T15:29:45.157Z,35.30
2019-02-25T15:32:16.441Z,35.40
2019-02-25T15:34:48.667Z,35.40
2019-02-25T15:37:19.358Z,35.50
2019-02-25T15:39:49.838Z,35.40
2019-02-25T15:42:23.917Z,35.80
2019-02-25T15:44:53.444Z,36.30
2019-02-25T15:47:25.215Z,36.00
2019-02-25T15:49:59.779Z,35.80
2019-02-25T15:52:30.856Z,35.70
2019-02-25T15:55:01.949Z,36.00
2019-02-25T15:57:34.916Z,36.20
2019-02-25T16:00:06.278Z,36.60
2019-02-25T16:02:39.085Z,36.60
2019-02-25T16:05:10.631Z,36.50
2019-02-25T16:07:41.995Z,36.50
2019-02-25T16:10:14.150Z,36.60
2019-02-25T16:12:47.959Z,36.60
2019-02-25T16:15:18.855Z,36.50
2019-02-25T16:17:51.632Z,36.50
2019-02-25T16:20:22.689Z,36.40
2019-02-25T16:22:56.336Z,36.20
2019-02-25T16:25:27.105Z,36.10
2019-02-25T16:27:58.212Z,35.90
2019-02-25T16:30:30.716Z,35.80
2019-02-25T16:33:02.916Z,35.80
2019-02-25T16:35:34.846Z,35.80
2019-02-25T16:38:07.342Z,35.80
2019-02-25T16:40:40.085Z,35.70
2019-02-25T16:43:12.729Z,35.70
2019-02-25T16:45:45.276Z,35.80
2019-02-25T16:48:17.292Z,36.10
2019-02-25T16:50:49.036Z,36.30
2019-02-25T16:53:20.352Z,36.50
2019-02-25T16:55:51.582Z,36.40
2019-02-25T16:58:25.957Z,36.50
2019-02-25T17:00:58.524Z,36.60
2019-02-25T17:03:32.043Z,36.60
2019-02-25T17:06:05.039Z,36.70
2019-02-25T17:08:37.698Z,36.80
2019-02-25T17:11:10.692Z,36.80
2019-02-25T17:13:41.633Z,36.80
2019-02-25T17:16:18.250Z,36.90
2019-02-25T17:18:46.778Z,36.80
2019-02-25T17:21:17.835Z,36.70
2019-02-25T17:23:48.979Z,36.50
2019-02-25T17:26:20.710Z,36.40
2019-02-25T17:28:51.865Z,36.30
2019-02-25T17:31:23.318Z,36.20
2019-02-25T17:33:55.837Z,36.20
2019-02-25T17:36:27.454Z,36.20
2019-02-25T17:38:59.206Z,36.30
2019-02-25T17:41:30.460Z,36.20
2019-02-25T17:44:01.412Z,36.20
2019-02-25T17:46:35.034Z,36.20
2019-02-25T17:49:07.873Z,36.30
2019-02-25T17:51:39.851Z,36.30
2019-02-25T17:54:12.479Z,36.30
2019-02-25T17:56:45.284Z,36.30
2019-02-25T17:59:16.970Z,36.30
2019-02-25T18:01:50.171Z,36.30
2019-02-25T18:04:21.403Z,36.30
2019-02-25T18:06:52.109Z,36.30
2019-02-25T18:09:24.671Z,36.30
2019-02-25T18:11:56.068Z,36.30
2019-02-25T18:14:27.202Z,36.40
2019-02-25T18:16:58.706Z,36.40
2019-02-25T18:19:31.318Z,36.40
2019-02-25T18:22:02.166Z,36.40
2019-02-25T18:24:33.250Z,36.40
2019-02-25T18:27:06.940Z,36.40
2019-02-25T18:29:38.049Z,36.40
2019-02-25T18:32:10.201Z,36.40
2019-02-25T18:34:42.197Z,36.50
2019-02-25T18:37:15.485Z,36.50
2019-02-25T18:39:47.943Z,36.50
2019-02-25T18:42:20.285Z,36.50
2019-02-25T18:44:53.544Z,36.50
2019-02-25T18:47:25.549Z,36.50
2019-02-25T18:49:58.804Z,36.50
2019-02-25T18:52:31.959Z,36.50
2019-02-25T18:55:05.018Z,36.90
2019-02-25T18:57:36.290Z,36.50
2019-02-25T19:00:10.162Z,36.50
2019-02-25T19:02:42.261Z,36.60
2019-02-25T19:05:14.122Z,36.50
2019-02-25T19:07:47.282Z,36.50
2019-02-25T19:10:20.464Z,36.60
2019-02-25T19:12:52.313Z,36.50
2019-02-25T19:15:24.524Z,36.60
2019-02-25T19:17:56.542Z,36.60
2019-02-25T19:20:27.633Z,36.60
2019-02-25T19:23:00.462Z,36.60
2019-02-25T19:25:30.351Z,36.50
2019-02-25T19:28:01.162Z,36.50
2019-02-25T19:30:34.110Z,36.60
2019-02-25T19:33:10.955Z,36.60
2019-02-25T19:35:39.029Z,36.50
2019-02-25T19:38:12.785Z,36.60
2019-02-25T19:40:43.284Z,36.60
2019-02-25T19:43:15.944Z,36.60
2019-02-25T19:45:46.540Z,36.60
2019-02-25T19:48:19.408Z,36.60
2019-02-25T19:50:51.376Z,36.70
2019-02-25T19:53:23.588Z,36.60
2019-02-25T19:55:53.919Z,36.70
2019-02-25T19:58:26.804Z,36.70
2019-02-25T20:01:00.950Z,36.80
2019-02-25T20:03:33.070Z,36.80
2019-02-25T20:06:03.182Z,36.80
2019-02-25T20:08:34.443Z,36.80
2019-02-25T20:11:05.169Z,36.70
2019-02-25T20:13:36.414Z,36.80
2019-02-25T20:16:08.271Z,36.90
2019-02-25T20:18:41.966Z,37.20
2019-02-25T20:21:13.541Z,37.40
2019-02-25T20:23:45.391Z,37.50
2019-02-25T20:26:17.723Z,37.40
2019-02-25T20:28:50.695Z,37.70
2019-02-25T20:31:21.814Z,37.70
2019-02-25T20:33:54.720Z,37.80
2019-02-25T20:36:26.332Z,37.40
2019-02-25T20:38:59.079Z,37.30
2019-02-25T20:41:31.002Z,37.20
2019-02-25T20:44:03.307Z,37.20
2019-02-25T20:46:35.506Z,37.10
2019-02-25T20:49:06.970Z,37.10
2019-02-25T20:51:38.626Z,37.10
2019-02-25T20:54:22.717Z,37.10
2019-02-25T20:57:02.252Z,37.00
2019-02-25T21:02:33.386Z,37.10
2019-02-25T21:05:04.851Z,37.10
2019-02-25T21:07:38.165Z,37.00
2019-02-25T21:10:12.040Z,37.00
2019-02-25T21:12:43.334Z,37.00
2019-02-25T21:15:15.167Z,37.10
2019-02-25T21:17:49.369Z,37.20
2019-02-25T21:20:28.869Z,37.10
2019-02-25T21:23:04.835Z,37.20
2019-02-25T21:25:33.811Z,37.20
2019-02-25T21:28:06.836Z,37.30
2019-02-25T21:30:41.174Z,37.70
2019-02-25T21:33:13.305Z,37.70
2019-02-25T21:35:42.589Z,37.80
2019-02-25T21:38:13.544Z,37.70
2019-02-25T21:40:45.995Z,37.70
2019-02-25T21:43:18.586Z,37.60
2019-02-25T21:45:50.432Z,37.70
2019-02-25T21:48:32.443Z,37.60
2019-02-25T21:51:04.557Z,37.60
2019-02-25T21:53:35.300Z,37.60
2019-02-25T21:56:06.774Z,37.60
2019-02-25T21:58:37.786Z,37.70
2019-02-25T22:01:16.425Z,38.00
2019-02-25T22:03:52.458Z,37.90
2019-02-25T22:06:36.014Z,38.00
2019-02-25T22:09:06.058Z,37.90
2019-02-25T22:11:38.558Z,37.90
2019-02-25T22:14:12.280Z,37.80
2019-02-25T22:16:44.424Z,37.80
2019-02-25T22:19:18.641Z,37.70
2019-02-25T22:21:51.593Z,37.70
2019-02-25T22:24:24.822Z,37.70
2019-02-25T22:26:55.868Z,37.70
2019-02-25T22:29:26.935Z,37.70
2019-02-25T22:31:59.493Z,37.70
2019-02-25T22:34:30.242Z,38.10
2019-02-25T22:37:02.527Z,38.00
2019-02-25T22:39:34.038Z,38.00
2019-02-25T22:42:07.221Z,37.80
2019-02-25T22:44:37.558Z,37.70
2019-02-25T22:47:09.792Z,37.70
2019-02-25T22:49:41.101Z,37.70
2019-02-25T22:52:11.968Z,38.40
2019-02-25T22:54:43.547Z,37.70
2019-02-25T22:57:16.720Z,37.70
2019-02-25T22:59:51.078Z,37.70
2019-02-25T23:02:25.096Z,37.70
2019-02-25T23:04:54.614Z,37.60
2019-02-25T23:07:26.494Z,37.50
2019-02-25T23:09:57.631Z,37.50
2019-02-25T23:12:30.984Z,37.50
2019-02-25T23:15:03.894Z,37.50
2019-02-25T23:17:37.544Z,37.60
2019-02-25T23:20:09.480Z,37.70
2019-02-25T23:22:40.681Z,37.50
2019-02-25T23:25:12.134Z,37.50
2019-02-25T23:27:43.274Z,37.50
2019-02-25T23:30:15.652Z,38.30
2019-02-25T23:32:46.488Z,37.60
2019-02-25T23:35:18.394Z,37.60
2019-02-25T23:37:51.508Z,37.60
2019-02-25T23:40:22.650Z,37.60
2019-02-25T23:42:53.555Z,37.50
2019-02-25T23:45:24.458Z,37.50
2019-02-25T23:47:57.980Z,38.10
2019-02-25T23:50:29.680Z,37.50
2019-02-25T23:53:01.345Z,37.50
2019-02-25T23:55:32.719Z,37.50
2019-02-25T23:58:07.840Z,37.50
